Windham, Montana
Current Conditions -  °F | °C
As of 9:54 AM on Tuesday 21 Oct 2014 (Local Time) from KLWT Reporting Station
Few Clouds Few Clouds  
Wind Chill: 64°   Ceiling: Unl
Heat Index: 64°   Visibility: 10mi
Dew Point: 39°   Wind: 5mph
Humidity: 40%   Direction: 350°N
Pressure: 29.69"   Gusts: NA
Location:  47.1454°N, 110.159°W
Report Text: KLWT 211554Z AUTO 35004KT 10SM FEW120 18/04 A2969 RMK AO2 SLP030 T01780039
Loading
Personal Weather Stations






























Interactive Weather Map
Tropical Storm Tracking
New forecast layout! Learn more

10-Day Weather Forecast

Advertisements
Track Severe Weather on mobile